M.sahin — TCUH — position and weather

sailwx.info

Track history (hours):
 
Tides and Currents Weather Stations Pressure Air Temp Water Temp Dewpoint Dewpoint Depression Visibility Wind Speed Wind Dir Waves Ship Positions

M.sahin

Last reported at 2018-Apr-26 03:50 UTC. Time now 2018-Apr-26 09:40 UTC.
Position N 42°27' E 029°24'.

Length 87 m; draft 5.7 m.

Type: Cargo ship. MMSI: 271000450.

Date/timePositionNaut miles runAvg speedWind from/ knotsBaromVisibWave heightAir tempDewpointWater temp
2018-Apr-26 03:50N 42°27' E 029°24'3 9.5
2018-Apr-26 03:30N 42°30' E 029°24'40 9.3
2018-Apr-25 23:14N 43°09' E 029°34'2 9.0
2018-Apr-25 23:00N 43°11' E 029°35'22 9.1
2018-Apr-25 20:33N 43°33' E 029°39'1 9.0
2018-Apr-25 20:28N 43°34' E 029°39'4 9.0
2018-Apr-25 20:00N 43°38' E 029°40'4 9.0
2018-Apr-25 19:30N 43°42' E 029°41'5 9.0
2018-Apr-25 19:00N 43°47' E 029°42'5 9.1
2018-Apr-25 18:31N 43°51' E 029°44'5 9.0
2018-Apr-25 18:00N 43°55' E 029°45'5 8.9
2018-Apr-25 17:27N 44°00' E 029°46'4 9.0
2018-Apr-25 17:00N 44°04' E 029°47'4 8.8
2018-Apr-25 16:31N 44°09' E 029°47'5 9.2
2018-Apr-25 16:00N 44°13' E 029°48'5 9.5
2018-Apr-25 15:30N 44°18' E 029°49'5 9.5
2018-Apr-25 15:00N 44°23' E 029°50'5 9.5
2018-Apr-25 14:31N 44°27' E 029°52'5 9.5
2018-Apr-25 14:01N 44°32' E 029°52'5 9.4
2018-Apr-25 13:30N 44°37' E 029°53'  
2018-Apr-22 02:46N 45°10' E 029°34'2 7.1
2018-Apr-22 02:30N 45°10' E 029°37'2 1.9
2018-Apr-22 01:30N 45°09' E 029°39'258 6.8
2018-Apr-20 11:46N 40°53' E 029°11'0 0.0
2018-Apr-20 11:29N 40°53' E 029°11'  
Track history (hours):
 
Tides and Currents Weather Stations Pressure Air Temp Water Temp Dewpoint Dewpoint Depression Visibility Wind Speed Wind Dir Waves Ship Positions

M.sahin

Last reported at 2018-Apr-26 03:50 UTC. Time now 2018-Apr-26 09:40 UTC.
Position N 42°27' E 029°24'.

Length 87 m; draft 5.7 m.

Type: Cargo ship. MMSI: 271000450.

Date/timePositionNaut miles runAvg speedWind from/ knotsBaromVisibWave heightAir tempDewpointWater temp
2018-Apr-26 03:50N 42°27' E 029°24'3 9.5
2018-Apr-26 03:30N 42°30' E 029°24'40 9.3
2018-Apr-25 23:14N 43°09' E 029°34'2 9.0
2018-Apr-25 23:00N 43°11' E 029°35'22 9.1
2018-Apr-25 20:33N 43°33' E 029°39'1 9.0
2018-Apr-25 20:28N 43°34' E 029°39'4 9.0
2018-Apr-25 20:00N 43°38' E 029°40'4 9.0
2018-Apr-25 19:30N 43°42' E 029°41'5 9.0
2018-Apr-25 19:00N 43°47' E 029°42'5 9.1
2018-Apr-25 18:31N 43°51' E 029°44'5 9.0
2018-Apr-25 18:00N 43°55' E 029°45'5 8.9
2018-Apr-25 17:27N 44°00' E 029°46'4 9.0
2018-Apr-25 17:00N 44°04' E 029°47'4 8.8
2018-Apr-25 16:31N 44°09' E 029°47'5 9.2
2018-Apr-25 16:00N 44°13' E 029°48'5 9.5
2018-Apr-25 15:30N 44°18' E 029°49'5 9.5
2018-Apr-25 15:00N 44°23' E 029°50'5 9.5
2018-Apr-25 14:31N 44°27' E 029°52'5 9.5
2018-Apr-25 14:01N 44°32' E 029°52'5 9.4
2018-Apr-25 13:30N 44°37' E 029°53'  
2018-Apr-22 02:46N 45°10' E 029°34'2 7.1
2018-Apr-22 02:30N 45°10' E 029°37'2 1.9
2018-Apr-22 01:30N 45°09' E 029°39'258 6.8
2018-Apr-20 11:46N 40°53' E 029°11'0 0.0
2018-Apr-20 11:29N 40°53' E 029°11'  

Dump ship's entire track history